sensor_id;sensor_type;location;lat;lon;timestamp;P1;durP1;ratioP1;P2;durP2;ratioP2
11823;SDS011;5969;50.780;7.726;2023-07-24T00:00:31;2.60;;;2.40;;
11823;SDS011;5969;50.780;7.726;2023-07-24T00:03:00;3.17;;;2.90;;
11823;SDS011;5969;50.780;7.726;2023-07-24T00:05:28;3.55;;;2.90;;
11823;SDS011;5969;50.780;7.726;2023-07-24T00:07:55;3.08;;;2.78;;
11823;SDS011;5969;50.780;7.726;2023-07-24T00:10:22;3.80;;;2.55;;
11823;SDS011;5969;50.780;7.726;2023-07-24T00:12:49;2.70;;;2.50;;
11823;SDS011;5969;50.780;7.726;2023-07-24T00:15:15;2.78;;;2.55;;
11823;SDS011;5969;50.780;7.726;2023-07-24T00:17:42;3.97;;;2.88;;
11823;SDS011;5969;50.780;7.726;2023-07-24T00:20:09;6.07;;;2.50;;
11823;SDS011;5969;50.780;7.726;2023-07-24T00:22:38;3.38;;;2.63;;
11823;SDS011;5969;50.780;7.726;2023-07-24T00:25:05;3.03;;;2.63;;
11823;SDS011;5969;50.780;7.726;2023-07-24T00:27:34;3.30;;;2.83;;
11823;SDS011;5969;50.780;7.726;2023-07-24T00:30:01;4.13;;;2.65;;
11823;SDS011;5969;50.780;7.726;2023-07-24T00:32:27;4.60;;;2.80;;
11823;SDS011;5969;50.780;7.726;2023-07-24T00:34:54;3.38;;;2.40;;
11823;SDS011;5969;50.780;7.726;2023-07-24T00:37:21;3.95;;;2.70;;
11823;SDS011;5969;50.780;7.726;2023-07-24T00:39:49;2.80;;;2.47;;
11823;SDS011;5969;50.780;7.726;2023-07-24T00:42:16;2.92;;;2.55;;
11823;SDS011;5969;50.780;7.726;2023-07-24T00:44:43;2.40;;;2.20;;
11823;SDS011;5969;50.780;7.726;2023-07-24T00:47:09;3.10;;;2.60;;
11823;SDS011;5969;50.780;7.726;2023-07-24T00:49:36;3.28;;;2.83;;
11823;SDS011;5969;50.780;7.726;2023-07-24T00:52:04;2.55;;;2.30;;
11823;SDS011;5969;50.780;7.726;2023-07-24T00:54:31;5.20;;;2.58;;
11823;SDS011;5969;50.780;7.726;2023-07-24T00:57:01;3.05;;;2.78;;
11823;SDS011;5969;50.780;7.726;2023-07-24T00:59:30;2.63;;;2.40;;
11823;SDS011;5969;50.780;7.726;2023-07-24T01:01:58;3.47;;;2.42;;
11823;SDS011;5969;50.780;7.726;2023-07-24T01:04:25;2.95;;;2.58;;
11823;SDS011;5969;50.780;7.726;2023-07-24T01:06:52;4.65;;;2.80;;
11823;SDS011;5969;50.780;7.726;2023-07-24T01:09:18;4.35;;;2.70;;
11823;SDS011;5969;50.780;7.726;2023-07-24T01:11:46;6.35;;;2.90;;
11823;SDS011;5969;50.780;7.726;2023-07-24T01:14:19;3.15;;;2.65;;
11823;SDS011;5969;50.780;7.726;2023-07-24T01:16:50;5.72;;;2.70;;
11823;SDS011;5969;50.780;7.726;2023-07-24T01:19:29;3.83;;;2.72;;
11823;SDS011;5969;50.780;7.726;2023-07-24T01:22:04;3.67;;;2.63;;
11823;SDS011;5969;50.780;7.726;2023-07-24T01:24:37;2.85;;;2.58;;
11823;SDS011;5969;50.780;7.726;2023-07-24T01:27:19;2.83;;;2.55;;
11823;SDS011;5969;50.780;7.726;2023-07-24T01:29:47;3.22;;;2.67;;
11823;SDS011;5969;50.780;7.726;2023-07-24T01:32:14;4.88;;;2.40;;
11823;SDS011;5969;50.780;7.726;2023-07-24T01:34:40;2.90;;;2.63;;
11823;SDS011;5969;50.780;7.726;2023-07-24T01:37:08;3.00;;;2.58;;
11823;SDS011;5969;50.780;7.726;2023-07-24T01:39:37;3.45;;;2.55;;
11823;SDS011;5969;50.780;7.726;2023-07-24T01:42:06;3.42;;;2.55;;
11823;SDS011;5969;50.780;7.726;2023-07-24T01:44:35;5.82;;;2.30;;
11823;SDS011;5969;50.780;7.726;2023-07-24T01:47:02;2.65;;;2.45;;
11823;SDS011;5969;50.780;7.726;2023-07-24T01:49:29;3.10;;;2.60;;
11823;SDS011;5969;50.780;7.726;2023-07-24T01:51:55;4.80;;;2.95;;
11823;SDS011;5969;50.780;7.726;2023-07-24T01:54:22;3.50;;;2.72;;
11823;SDS011;5969;50.780;7.726;2023-07-24T01:56:49;3.58;;;2.80;;
11823;SDS011;5969;50.780;7.726;2023-07-24T01:59:16;3.83;;;2.72;;
11823;SDS011;5969;50.780;7.726;2023-07-24T02:01:44;6.43;;;2.58;;
11823;SDS011;5969;50.780;7.726;2023-07-24T02:04:11;2.63;;;2.42;;
11823;SDS011;5969;50.780;7.726;2023-07-24T02:06:38;3.22;;;2.50;;
11823;SDS011;5969;50.780;7.726;2023-07-24T02:09:04;2.97;;;2.55;;
11823;SDS011;5969;50.780;7.726;2023-07-24T02:11:31;2.72;;;2.42;;
11823;SDS011;5969;50.780;7.726;2023-07-24T02:13:59;5.25;;;2.97;;
11823;SDS011;5969;50.780;7.726;2023-07-24T02:16:28;3.55;;;2.63;;
11823;SDS011;5969;50.780;7.726;2023-07-24T02:18:56;4.13;;;2.10;;
11823;SDS011;5969;50.780;7.726;2023-07-24T02:21:23;3.63;;;2.50;;
11823;SDS011;5969;50.780;7.726;2023-07-24T02:23:49;3.90;;;2.88;;
11823;SDS011;5969;50.780;7.726;2023-07-24T02:26:16;4.65;;;3.00;;
11823;SDS011;5969;50.780;7.726;2023-07-24T02:28:43;2.97;;;2.67;;
11823;SDS011;5969;50.780;7.726;2023-07-24T02:31:10;2.97;;;2.67;;
11823;SDS011;5969;50.780;7.726;2023-07-24T02:33:37;3.63;;;2.35;;
11823;SDS011;5969;50.780;7.726;2023-07-24T02:36:05;6.35;;;3.05;;
11823;SDS011;5969;50.780;7.726;2023-07-24T02:38:32;5.30;;;3.00;;
11823;SDS011;5969;50.780;7.726;2023-07-24T02:40:59;4.57;;;3.25;;
11823;SDS011;5969;50.780;7.726;2023-07-24T02:43:28;3.10;;;2.70;;
11823;SDS011;5969;50.780;7.726;2023-07-24T02:45:59;3.10;;;2.65;;
11823;SDS011;5969;50.780;7.726;2023-07-24T02:48:27;3.03;;;2.72;;
11823;SDS011;5969;50.780;7.726;2023-07-24T02:50:54;6.30;;;3.05;;
11823;SDS011;5969;50.780;7.726;2023-07-24T02:53:22;3.30;;;3.00;;
11823;SDS011;5969;50.780;7.726;2023-07-24T02:55:49;4.25;;;2.70;;
11823;SDS011;5969;50.780;7.726;2023-07-24T02:58:16;2.97;;;2.67;;
11823;SDS011;5969;50.780;7.726;2023-07-24T03:00:42;3.17;;;2.88;;
11823;SDS011;5969;50.780;7.726;2023-07-24T03:03:09;3.80;;;3.15;;
11823;SDS011;5969;50.780;7.726;2023-07-24T03:05:36;4.72;;;3.13;;
11823;SDS011;5969;50.780;7.726;2023-07-24T03:08:04;4.18;;;2.90;;
11823;SDS011;5969;50.780;7.726;2023-07-24T03:10:32;4.15;;;3.22;;
11823;SDS011;5969;50.780;7.726;2023-07-24T03:12:59;7.13;;;3.42;;
11823;SDS011;5969;50.780;7.726;2023-07-24T03:15:26;4.45;;;3.10;;
11823;SDS011;5969;50.780;7.726;2023-07-24T03:17:53;4.30;;;3.42;;
11823;SDS011;5969;50.780;7.726;2023-07-24T03:20:20;5.20;;;3.17;;
11823;SDS011;5969;50.780;7.726;2023-07-24T03:22:47;4.45;;;3.70;;
11823;SDS011;5969;50.780;7.726;2023-07-24T03:25:13;5.28;;;3.17;;
11823;SDS011;5969;50.780;7.726;2023-07-24T03:27:42;3.20;;;2.85;;
11823;SDS011;5969;50.780;7.726;2023-07-24T03:30:09;3.63;;;3.30;;
11823;SDS011;5969;50.780;7.726;2023-07-24T03:32:36;3.38;;;2.80;;
11823;SDS011;5969;50.780;7.726;2023-07-24T03:35:04;3.35;;;3.05;;
11823;SDS011;5969;50.780;7.726;2023-07-24T03:37:31;3.38;;;3.05;;
11823;SDS011;5969;50.780;7.726;2023-07-24T03:39:59;3.75;;;3.10;;
11823;SDS011;5969;50.780;7.726;2023-07-24T03:42:26;5.28;;;3.00;;
11823;SDS011;5969;50.780;7.726;2023-07-24T03:44:55;3.50;;;3.20;;
11823;SDS011;5969;50.780;7.726;2023-07-24T03:47:22;4.78;;;3.15;;
11823;SDS011;5969;50.780;7.726;2023-07-24T03:49:49;3.70;;;2.80;;
11823;SDS011;5969;50.780;7.726;2023-07-24T03:52:16;5.75;;;3.30;;
11823;SDS011;5969;50.780;7.726;2023-07-24T03:54:43;4.30;;;2.60;;
11823;SDS011;5969;50.780;7.726;2023-07-24T03:57:10;3.00;;;2.70;;
11823;SDS011;5969;50.780;7.726;2023-07-24T03:59:37;5.38;;;3.28;;
11823;SDS011;5969;50.780;7.726;2023-07-24T04:02:07;2.90;;;2.60;;
11823;SDS011;5969;50.780;7.726;2023-07-24T04:04:34;4.00;;;3.33;;
11823;SDS011;5969;50.780;7.726;2023-07-24T04:07:02;4.32;;;3.00;;
11823;SDS011;5969;50.780;7.726;2023-07-24T04:09:29;4.97;;;2.95;;
11823;SDS011;5969;50.780;7.726;2023-07-24T04:11:56;4.78;;;2.70;;
11823;SDS011;5969;50.780;7.726;2023-07-24T04:14:23;3.47;;;2.95;;
11823;SDS011;5969;50.780;7.726;2023-07-24T04:16:50;4.85;;;3.30;;
11823;SDS011;5969;50.780;7.726;2023-07-24T04:19:18;3.90;;;3.08;;
11823;SDS011;5969;50.780;7.726;2023-07-24T04:21:44;3.05;;;2.78;;
11823;SDS011;5969;50.780;7.726;2023-07-24T04:24:11;3.75;;;3.17;;
11823;SDS011;5969;50.780;7.726;2023-07-24T04:26:38;3.65;;;3.08;;
11823;SDS011;5969;50.780;7.726;2023-07-24T04:29:05;3.95;;;3.20;;
11823;SDS011;5969;50.780;7.726;2023-07-24T04:31:32;4.50;;;2.88;;
11823;SDS011;5969;50.780;7.726;2023-07-24T04:33:59;5.90;;;3.15;;
11823;SDS011;5969;50.780;7.726;2023-07-24T04:36:27;4.07;;;3.30;;
11823;SDS011;5969;50.780;7.726;2023-07-24T04:38:56;4.00;;;3.08;;
11823;SDS011;5969;50.780;7.726;2023-07-24T04:41:23;5.47;;;2.80;;
11823;SDS011;5969;50.780;7.726;2023-07-24T04:43:50;3.50;;;3.17;;
11823;SDS011;5969;50.780;7.726;2023-07-24T04:46:17;3.70;;;2.95;;
11823;SDS011;5969;50.780;7.726;2023-07-24T04:48:44;4.32;;;3.00;;
11823;SDS011;5969;50.780;7.726;2023-07-24T04:51:10;3.80;;;2.90;;
11823;SDS011;5969;50.780;7.726;2023-07-24T04:53:38;3.60;;;3.00;;
11823;SDS011;5969;50.780;7.726;2023-07-24T04:56:05;3.72;;;3.20;;
11823;SDS011;5969;50.780;7.726;2023-07-24T04:58:32;3.30;;;2.90;;
11823;SDS011;5969;50.780;7.726;2023-07-24T05:01:01;3.78;;;3.45;;
11823;SDS011;5969;50.780;7.726;2023-07-24T05:03:29;3.55;;;3.10;;
11823;SDS011;5969;50.780;7.726;2023-07-24T05:05:55;4.47;;;3.42;;
11823;SDS011;5969;50.780;7.726;2023-07-24T05:08:22;4.32;;;3.10;;
11823;SDS011;5969;50.780;7.726;2023-07-24T05:10:54;3.50;;;3.20;;
11823;SDS011;5969;50.780;7.726;2023-07-24T05:13:21;4.82;;;3.20;;
11823;SDS011;5969;50.780;7.726;2023-07-24T05:15:48;4.32;;;3.30;;
11823;SDS011;5969;50.780;7.726;2023-07-24T05:18:15;5.75;;;3.28;;
11823;SDS011;5969;50.780;7.726;2023-07-24T05:20:45;4.32;;;2.80;;
11823;SDS011;5969;50.780;7.726;2023-07-24T05:23:13;5.20;;;3.20;;
11823;SDS011;5969;50.780;7.726;2023-07-24T05:25:40;5.00;;;3.33;;
11823;SDS011;5969;50.780;7.726;2023-07-24T05:28:09;3.53;;;3.20;;
11823;SDS011;5969;50.780;7.726;2023-07-24T05:30:36;4.55;;;3.17;;
11823;SDS011;5969;50.780;7.726;2023-07-24T05:33:03;3.83;;;3.42;;
11823;SDS011;5969;50.780;7.726;2023-07-24T05:35:29;5.13;;;3.45;;
11823;SDS011;5969;50.780;7.726;2023-07-24T05:37:56;3.95;;;3.55;;
11823;SDS011;5969;50.780;7.726;2023-07-24T05:40:23;3.25;;;2.95;;
11823;SDS011;5969;50.780;7.726;2023-07-24T05:42:50;4.15;;;3.28;;
11823;SDS011;5969;50.780;7.726;2023-07-24T05:45:18;4.65;;;3.25;;
11823;SDS011;5969;50.780;7.726;2023-07-24T05:47:45;4.35;;;3.55;;
11823;SDS011;5969;50.780;7.726;2023-07-24T05:50:12;3.85;;;3.20;;
11823;SDS011;5969;50.780;7.726;2023-07-24T05:52:39;4.03;;;3.40;;
11823;SDS011;5969;50.780;7.726;2023-07-24T05:55:07;5.22;;;3.67;;
11823;SDS011;5969;50.780;7.726;2023-07-24T05:57:34;4.25;;;3.63;;
11823;SDS011;5969;50.780;7.726;2023-07-24T06:00:01;3.85;;;3.45;;
11823;SDS011;5969;50.780;7.726;2023-07-24T06:02:29;3.53;;;3.17;;
11823;SDS011;5969;50.780;7.726;2023-07-24T06:04:56;6.45;;;4.18;;
11823;SDS011;5969;50.780;7.726;2023-07-24T06:07:23;5.43;;;3.85;;
11823;SDS011;5969;50.780;7.726;2023-07-24T06:09:50;4.80;;;3.70;;
11823;SDS011;5969;50.780;7.726;2023-07-24T06:12:17;5.25;;;3.92;;
11823;SDS011;5969;50.780;7.726;2023-07-24T06:14:43;5.43;;;3.97;;
11823;SDS011;5969;50.780;7.726;2023-07-24T06:17:10;4.97;;;3.88;;
11823;SDS011;5969;50.780;7.726;2023-07-24T06:19:38;5.10;;;4.30;;
11823;SDS011;5969;50.780;7.726;2023-07-24T06:22:05;5.20;;;4.00;;
11823;SDS011;5969;50.780;7.726;2023-07-24T06:24:33;5.43;;;4.32;;
11823;SDS011;5969;50.780;7.726;2023-07-24T06:26:59;5.63;;;4.03;;
11823;SDS011;5969;50.780;7.726;2023-07-24T06:29:26;5.13;;;3.65;;
11823;SDS011;5969;50.780;7.726;2023-07-24T06:31:53;4.18;;;3.60;;
11823;SDS011;5969;50.780;7.726;2023-07-24T06:34:20;5.60;;;3.97;;
11823;SDS011;5969;50.780;7.726;2023-07-24T06:36:48;4.68;;;3.78;;
11823;SDS011;5969;50.780;7.726;2023-07-24T06:39:15;5.50;;;3.75;;
11823;SDS011;5969;50.780;7.726;2023-07-24T06:41:42;5.55;;;4.35;;
11823;SDS011;5969;50.780;7.726;2023-07-24T06:44:08;6.45;;;4.25;;
11823;SDS011;5969;50.780;7.726;2023-07-24T06:46:35;4.32;;;3.72;;
11823;SDS011;5969;50.780;7.726;2023-07-24T06:49:02;5.13;;;3.95;;
11823;SDS011;5969;50.780;7.726;2023-07-24T06:51:29;6.07;;;4.10;;
11823;SDS011;5969;50.780;7.726;2023-07-24T06:53:57;5.45;;;4.40;;
11823;SDS011;5969;50.780;7.726;2023-07-24T06:56:24;5.88;;;4.32;;
11823;SDS011;5969;50.780;7.726;2023-07-24T06:58:50;5.70;;;4.47;;
11823;SDS011;5969;50.780;7.726;2023-07-24T07:01:18;6.72;;;4.43;;
11823;SDS011;5969;50.780;7.726;2023-07-24T07:03:45;6.70;;;4.13;;
11823;SDS011;5969;50.780;7.726;2023-07-24T07:06:13;7.07;;;4.70;;
11823;SDS011;5969;50.780;7.726;2023-07-24T07:08:40;6.65;;;5.07;;
11823;SDS011;5969;50.780;7.726;2023-07-24T07:11:08;8.20;;;5.53;;
11823;SDS011;5969;50.780;7.726;2023-07-24T07:13:35;4.88;;;4.38;;
11823;SDS011;5969;50.780;7.726;2023-07-24T07:16:02;6.13;;;4.30;;
11823;SDS011;5969;50.780;7.726;2023-07-24T07:18:29;5.30;;;4.43;;
11823;SDS011;5969;50.780;7.726;2023-07-24T07:20:55;5.75;;;4.30;;
11823;SDS011;5969;50.780;7.726;2023-07-24T07:23:22;6.53;;;4.18;;
11823;SDS011;5969;50.780;7.726;2023-07-24T07:25:50;6.18;;;5.15;;
11823;SDS011;5969;50.780;7.726;2023-07-24T07:28:18;4.30;;;3.90;;
11823;SDS011;5969;50.780;7.726;2023-07-24T07:30:46;5.88;;;4.05;;
11823;SDS011;5969;50.780;7.726;2023-07-24T07:33:13;4.82;;;4.18;;
11823;SDS011;5969;50.780;7.726;2023-07-24T07:35:39;5.10;;;4.28;;
11823;SDS011;5969;50.780;7.726;2023-07-24T07:38:06;5.15;;;3.83;;
11823;SDS011;5969;50.780;7.726;2023-07-24T07:40:33;6.18;;;4.18;;
11823;SDS011;5969;50.780;7.726;2023-07-24T07:43:02;5.32;;;4.50;;
11823;SDS011;5969;50.780;7.726;2023-07-24T07:45:30;5.85;;;4.15;;
11823;SDS011;5969;50.780;7.726;2023-07-24T07:48:04;4.28;;;3.88;;
11823;SDS011;5969;50.780;7.726;2023-07-24T07:50:31;4.72;;;4.07;;
11823;SDS011;5969;50.780;7.726;2023-07-24T07:52:58;4.78;;;3.97;;
11823;SDS011;5969;50.780;7.726;2023-07-24T07:55:26;4.10;;;3.70;;
11823;SDS011;5969;50.780;7.726;2023-07-24T07:57:52;5.35;;;3.85;;
11823;SDS011;5969;50.780;7.726;2023-07-24T08:00:19;4.15;;;3.65;;
11823;SDS011;5969;50.780;7.726;2023-07-24T08:02:48;5.35;;;3.80;;
11823;SDS011;5969;50.780;7.726;2023-07-24T08:05:15;7.13;;;4.10;;
11823;SDS011;5969;50.780;7.726;2023-07-24T08:07:42;4.75;;;4.15;;
11823;SDS011;5969;50.780;7.726;2023-07-24T08:10:09;4.20;;;3.75;;
11823;SDS011;5969;50.780;7.726;2023-07-24T08:12:35;4.65;;;4.22;;
11823;SDS011;5969;50.780;7.726;2023-07-24T08:15:03;4.20;;;3.80;;
11823;SDS011;5969;50.780;7.726;2023-07-24T08:17:30;5.13;;;4.60;;
11823;SDS011;5969;50.780;7.726;2023-07-24T08:19:58;8.18;;;4.70;;
11823;SDS011;5969;50.780;7.726;2023-07-24T08:22:25;6.85;;;4.03;;
11823;SDS011;5969;50.780;7.726;2023-07-24T08:24:52;5.28;;;4.35;;
11823;SDS011;5969;50.780;7.726;2023-07-24T08:27:19;5.65;;;4.45;;
11823;SDS011;5969;50.780;7.726;2023-07-24T08:29:46;4.60;;;4.20;;
11823;SDS011;5969;50.780;7.726;2023-07-24T08:32:16;6.05;;;4.65;;
11823;SDS011;5969;50.780;7.726;2023-07-24T08:34:43;4.43;;;4.03;;
11823;SDS011;5969;50.780;7.726;2023-07-24T08:37:11;6.15;;;3.80;;
11823;SDS011;5969;50.780;7.726;2023-07-24T08:39:38;4.75;;;4.10;;
11823;SDS011;5969;50.780;7.726;2023-07-24T08:42:08;6.07;;;4.55;;
11823;SDS011;5969;50.780;7.726;2023-07-24T08:44:36;4.85;;;4.35;;
11823;SDS011;5969;50.780;7.726;2023-07-24T08:47:03;7.35;;;4.75;;
11823;SDS011;5969;50.780;7.726;2023-07-24T08:49:32;6.63;;;4.50;;
11823;SDS011;5969;50.780;7.726;2023-07-24T08:52:00;5.55;;;3.90;;
11823;SDS011;5969;50.780;7.726;2023-07-24T08:54:30;4.32;;;3.78;;
11823;SDS011;5969;50.780;7.726;2023-07-24T08:56:58;5.15;;;3.95;;
11823;SDS011;5969;50.780;7.726;2023-07-24T08:59:26;6.18;;;4.22;;
11823;SDS011;5969;50.780;7.726;2023-07-24T09:01:55;5.25;;;4.35;;
11823;SDS011;5969;50.780;7.726;2023-07-24T09:04:22;5.07;;;4.15;;
11823;SDS011;5969;50.780;7.726;2023-07-24T09:06:50;4.72;;;4.07;;
11823;SDS011;5969;50.780;7.726;2023-07-24T09:09:17;4.60;;;3.72;;
11823;SDS011;5969;50.780;7.726;2023-07-24T09:11:49;4.55;;;4.10;;
11823;SDS011;5969;50.780;7.726;2023-07-24T09:14:20;5.97;;;4.05;;
11823;SDS011;5969;50.780;7.726;2023-07-24T09:16:47;7.90;;;4.13;;
11823;SDS011;5969;50.780;7.726;2023-07-24T09:19:17;4.50;;;4.00;;
11823;SDS011;5969;50.780;7.726;2023-07-24T09:21:45;5.78;;;3.88;;
11823;SDS011;5969;50.780;7.726;2023-07-24T09:24:12;4.32;;;3.85;;
11823;SDS011;5969;50.780;7.726;2023-07-24T09:26:46;5.15;;;3.88;;
11823;SDS011;5969;50.780;7.726;2023-07-24T09:29:16;6.38;;;3.85;;
11823;SDS011;5969;50.780;7.726;2023-07-24T09:31:43;4.38;;;3.75;;
11823;SDS011;5969;50.780;7.726;2023-07-24T09:34:14;5.63;;;3.35;;
11823;SDS011;5969;50.780;7.726;2023-07-24T09:36:41;3.90;;;3.42;;
11823;SDS011;5969;50.780;7.726;2023-07-24T09:39:08;5.53;;;3.38;;
11823;SDS011;5969;50.780;7.726;2023-07-24T09:41:36;4.55;;;3.58;;
11823;SDS011;5969;50.780;7.726;2023-07-24T09:44:05;5.13;;;3.80;;
11823;SDS011;5969;50.780;7.726;2023-07-24T09:46:32;4.63;;;3.90;;
11823;SDS011;5969;50.780;7.726;2023-07-24T09:48:59;4.25;;;3.40;;
11823;SDS011;5969;50.780;7.726;2023-07-24T09:51:27;5.22;;;3.63;;
11823;SDS011;5969;50.780;7.726;2023-07-24T09:53:58;4.85;;;3.70;;
11823;SDS011;5969;50.780;7.726;2023-07-24T09:56:29;4.85;;;3.53;;
11823;SDS011;5969;50.780;7.726;2023-07-24T09:59:00;6.15;;;3.53;;
11823;SDS011;5969;50.780;7.726;2023-07-24T10:01:29;3.50;;;2.95;;
11823;SDS011;5969;50.780;7.726;2023-07-24T10:03:58;6.57;;;3.50;;
11823;SDS011;5969;50.780;7.726;2023-07-24T10:06:26;4.68;;;3.30;;
11823;SDS011;5969;50.780;7.726;2023-07-24T10:08:54;3.53;;;3.17;;
11823;SDS011;5969;50.780;7.726;2023-07-24T10:11:22;5.25;;;3.47;;
11823;SDS011;5969;50.780;7.726;2023-07-24T10:13:50;4.43;;;3.50;;
11823;SDS011;5969;50.780;7.726;2023-07-24T10:16:18;3.67;;;3.25;;
11823;SDS011;5969;50.780;7.726;2023-07-24T10:18:46;3.80;;;3.40;;
11823;SDS011;5969;50.780;7.726;2023-07-24T10:21:14;4.07;;;3.40;;
11823;SDS011;5969;50.780;7.726;2023-07-24T10:23:41;4.70;;;3.85;;
11823;SDS011;5969;50.780;7.726;2023-07-24T10:26:09;5.13;;;3.30;;
11823;SDS011;5969;50.780;7.726;2023-07-24T10:28:37;4.82;;;3.17;;
11823;SDS011;5969;50.780;7.726;2023-07-24T10:31:06;3.45;;;3.15;;
11823;SDS011;5969;50.780;7.726;2023-07-24T10:33:35;4.38;;;2.97;;
11823;SDS011;5969;50.780;7.726;2023-07-24T10:36:11;4.88;;;3.38;;
11823;SDS011;5969;50.780;7.726;2023-07-24T10:38:40;4.13;;;3.50;;
11823;SDS011;5969;50.780;7.726;2023-07-24T10:41:09;4.40;;;2.88;;
11823;SDS011;5969;50.780;7.726;2023-07-24T10:43:41;3.75;;;3.08;;
11823;SDS011;5969;50.780;7.726;2023-07-24T10:46:08;3.45;;;3.15;;
11823;SDS011;5969;50.780;7.726;2023-07-24T10:48:35;4.45;;;3.30;;
11823;SDS011;5969;50.780;7.726;2023-07-24T10:51:06;3.97;;;3.58;;
11823;SDS011;5969;50.780;7.726;2023-07-24T10:53:35;4.25;;;3.10;;
11823;SDS011;5969;50.780;7.726;2023-07-24T10:56:03;3.88;;;3.42;;
11823;SDS011;5969;50.780;7.726;2023-07-24T10:58:30;4.40;;;3.45;;
11823;SDS011;5969;50.780;7.726;2023-07-24T11:00:57;4.03;;;3.45;;
11823;SDS011;5969;50.780;7.726;2023-07-24T11:03:25;4.28;;;3.22;;
11823;SDS011;5969;50.780;7.726;2023-07-24T11:05:52;4.00;;;3.30;;
11823;SDS011;5969;50.780;7.726;2023-07-24T11:08:19;4.53;;;3.13;;
11823;SDS011;5969;50.780;7.726;2023-07-24T11:10:48;6.07;;;3.25;;
11823;SDS011;5969;50.780;7.726;2023-07-24T11:13:16;3.17;;;2.92;;
11823;SDS011;5969;50.780;7.726;2023-07-24T11:15:44;5.00;;;3.13;;
11823;SDS011;5969;50.780;7.726;2023-07-24T11:18:12;3.92;;;3.53;;
11823;SDS011;5969;50.780;7.726;2023-07-24T11:20:43;6.93;;;3.45;;
11823;SDS011;5969;50.780;7.726;2023-07-24T11:23:10;4.07;;;2.92;;
11823;SDS011;5969;50.780;7.726;2023-07-24T11:25:38;4.53;;;2.92;;
11823;SDS011;5969;50.780;7.726;2023-07-24T11:28:07;4.13;;;3.10;;
11823;SDS011;5969;50.780;7.726;2023-07-24T11:30:36;3.95;;;3.22;;
11823;SDS011;5969;50.780;7.726;2023-07-24T11:33:04;6.30;;;3.47;;
11823;SDS011;5969;50.780;7.726;2023-07-24T11:35:31;3.05;;;2.85;;
11823;SDS011;5969;50.780;7.726;2023-07-24T11:37:59;4.13;;;3.10;;
11823;SDS011;5969;50.780;7.726;2023-07-24T11:40:32;3.75;;;2.78;;
11823;SDS011;5969;50.780;7.726;2023-07-24T11:43:01;5.35;;;3.10;;
11823;SDS011;5969;50.780;7.726;2023-07-24T11:45:31;3.88;;;3.20;;
11823;SDS011;5969;50.780;7.726;2023-07-24T11:48:09;4.03;;;3.58;;
11823;SDS011;5969;50.780;7.726;2023-07-24T11:50:41;3.45;;;3.15;;
11823;SDS011;5969;50.780;7.726;2023-07-24T11:53:18;3.47;;;3.13;;
11823;SDS011;5969;50.780;7.726;2023-07-24T11:55:45;4.78;;;3.15;;
11823;SDS011;5969;50.780;7.726;2023-07-24T11:58:13;4.30;;;3.00;;
11823;SDS011;5969;50.780;7.726;2023-07-24T12:00:43;4.30;;;3.40;;
11823;SDS011;5969;50.780;7.726;2023-07-24T12:03:11;5.60;;;3.20;;
11823;SDS011;5969;50.780;7.726;2023-07-24T12:05:38;5.43;;;3.40;;
11823;SDS011;5969;50.780;7.726;2023-07-24T12:08:05;3.45;;;3.05;;
11823;SDS011;5969;50.780;7.726;2023-07-24T12:10:35;5.07;;;3.50;;
11823;SDS011;5969;50.780;7.726;2023-07-24T12:13:02;6.68;;;3.38;;
11823;SDS011;5969;50.780;7.726;2023-07-24T12:15:29;4.18;;;3.53;;
11823;SDS011;5969;50.780;7.726;2023-07-24T12:17:58;4.97;;;3.17;;
11823;SDS011;5969;50.780;7.726;2023-07-24T12:20:25;3.95;;;3.47;;
11823;SDS011;5969;50.780;7.726;2023-07-24T12:22:53;4.78;;;3.40;;
11823;SDS011;5969;50.780;7.726;2023-07-24T12:25:19;6.65;;;3.60;;
11823;SDS011;5969;50.780;7.726;2023-07-24T12:27:46;4.97;;;3.97;;
11823;SDS011;5969;50.780;7.726;2023-07-24T12:30:14;5.68;;;3.78;;
11823;SDS011;5969;50.780;7.726;2023-07-24T12:32:40;6.35;;;3.90;;
11823;SDS011;5969;50.780;7.726;2023-07-24T12:35:09;4.40;;;3.90;;
11823;SDS011;5969;50.780;7.726;2023-07-24T12:37:36;4.38;;;3.97;;
11823;SDS011;5969;50.780;7.726;2023-07-24T12:40:05;3.40;;;3.10;;
11823;SDS011;5969;50.780;7.726;2023-07-24T12:42:32;3.53;;;3.22;;
11823;SDS011;5969;50.780;7.726;2023-07-24T12:44:59;4.82;;;3.60;;
11823;SDS011;5969;50.780;7.726;2023-07-24T12:47:27;5.35;;;3.25;;
11823;SDS011;5969;50.780;7.726;2023-07-24T12:49:54;4.55;;;3.45;;
11823;SDS011;5969;50.780;7.726;2023-07-24T12:52:24;5.78;;;3.40;;
11823;SDS011;5969;50.780;7.726;2023-07-24T12:54:51;5.07;;;2.97;;
11823;SDS011;5969;50.780;7.726;2023-07-24T12:57:18;4.65;;;2.97;;
11823;SDS011;5969;50.780;7.726;2023-07-24T12:59:44;5.30;;;2.80;;
11823;SDS011;5969;50.780;7.726;2023-07-24T13:02:11;6.97;;;3.05;;
11823;SDS011;5969;50.780;7.726;2023-07-24T13:04:38;4.82;;;2.72;;
11823;SDS011;5969;50.780;7.726;2023-07-24T13:07:05;3.55;;;2.60;;
11823;SDS011;5969;50.780;7.726;2023-07-24T13:09:33;4.15;;;2.90;;
11823;SDS011;5969;50.780;7.726;2023-07-24T13:12:00;3.95;;;2.50;;
11823;SDS011;5969;50.780;7.726;2023-07-24T13:14:27;4.28;;;2.50;;
11823;SDS011;5969;50.780;7.726;2023-07-24T13:16:54;2.97;;;2.60;;
11823;SDS011;5969;50.780;7.726;2023-07-24T13:19:21;4.47;;;2.30;;
11823;SDS011;5969;50.780;7.726;2023-07-24T13:21:48;4.93;;;2.40;;
11823;SDS011;5969;50.780;7.726;2023-07-24T13:24:18;3.13;;;2.20;;
11823;SDS011;5969;50.780;7.726;2023-07-24T13:26:46;2.53;;;1.65;;
11823;SDS011;5969;50.780;7.726;2023-07-24T13:29:13;4.22;;;1.40;;
11823;SDS011;5969;50.780;7.726;2023-07-24T13:31:40;1.80;;;1.65;;
11823;SDS011;5969;50.780;7.726;2023-07-24T13:34:06;1.65;;;1.45;;
11823;SDS011;5969;50.780;7.726;2023-07-24T13:36:33;1.65;;;1.30;;
11823;SDS011;5969;50.780;7.726;2023-07-24T13:39:00;1.40;;;1.30;;
11823;SDS011;5969;50.780;7.726;2023-07-24T13:41:28;1.55;;;1.45;;
11823;SDS011;5969;50.780;7.726;2023-07-24T13:43:56;2.40;;;1.30;;
11823;SDS011;5969;50.780;7.726;2023-07-24T13:46:23;1.33;;;1.20;;
11823;SDS011;5969;50.780;7.726;2023-07-24T13:48:49;1.45;;;1.35;;
11823;SDS011;5969;50.780;7.726;2023-07-24T13:51:16;2.17;;;1.50;;
11823;SDS011;5969;50.780;7.726;2023-07-24T13:53:43;2.70;;;1.50;;
11823;SDS011;5969;50.780;7.726;2023-07-24T13:56:12;1.60;;;1.20;;
11823;SDS011;5969;50.780;7.726;2023-07-24T13:58:39;2.15;;;1.27;;
11823;SDS011;5969;50.780;7.726;2023-07-24T14:01:07;3.42;;;1.73;;
11823;SDS011;5969;50.780;7.726;2023-07-24T14:03:34;3.28;;;2.08;;
11823;SDS011;5969;50.780;7.726;2023-07-24T14:06:00;3.47;;;1.90;;
11823;SDS011;5969;50.780;7.726;2023-07-24T14:08:27;2.83;;;1.65;;
11823;SDS011;5969;50.780;7.726;2023-07-24T14:10:54;2.97;;;1.70;;
11823;SDS011;5969;50.780;7.726;2023-07-24T14:13:21;2.65;;;1.77;;
11823;SDS011;5969;50.780;7.726;2023-07-24T14:15:47;2.60;;;1.58;;
11823;SDS011;5969;50.780;7.726;2023-07-24T14:18:16;3.15;;;1.50;;
11823;SDS011;5969;50.780;7.726;2023-07-24T14:20:42;2.15;;;1.75;;
11823;SDS011;5969;50.780;7.726;2023-07-24T14:23:09;3.35;;;1.48;;
11823;SDS011;5969;50.780;7.726;2023-07-24T14:25:36;5.13;;;2.60;;
11823;SDS011;5969;50.780;7.726;2023-07-24T14:28:03;2.85;;;1.80;;
11823;SDS011;5969;50.780;7.726;2023-07-24T14:30:30;2.53;;;1.30;;
11823;SDS011;5969;50.780;7.726;2023-07-24T14:32:57;3.15;;;1.55;;
11823;SDS011;5969;50.780;7.726;2023-07-24T14:35:25;1.80;;;1.40;;
11823;SDS011;5969;50.780;7.726;2023-07-24T14:37:52;1.85;;;1.40;;
11823;SDS011;5969;50.780;7.726;2023-07-24T14:40:19;2.60;;;1.48;;
11823;SDS011;5969;50.780;7.726;2023-07-24T14:42:45;2.35;;;1.27;;
11823;SDS011;5969;50.780;7.726;2023-07-24T14:45:12;1.98;;;1.30;;
11823;SDS011;5969;50.780;7.726;2023-07-24T14:47:39;2.55;;;1.45;;
11823;SDS011;5969;50.780;7.726;2023-07-24T14:50:06;3.08;;;1.67;;
11823;SDS011;5969;50.780;7.726;2023-07-24T14:52:35;2.85;;;1.30;;
11823;SDS011;5969;50.780;7.726;2023-07-24T14:55:03;1.83;;;1.20;;
11823;SDS011;5969;50.780;7.726;2023-07-24T14:57:30;1.98;;;1.58;;
11823;SDS011;5969;50.780;7.726;2023-07-24T14:59:57;2.08;;;1.20;;
11823;SDS011;5969;50.780;7.726;2023-07-24T15:02:24;3.05;;;1.30;;